createdAt,value
2019-02-18T00:00:01.585Z,73.77
2019-02-18T00:01:01.578Z,73.98
2019-02-18T00:02:01.570Z,73.77
2019-02-18T00:03:01.588Z,73.67
2019-02-18T00:04:01.541Z,74.08
2019-02-18T00:05:01.535Z,74.08
2019-02-18T00:06:01.521Z,74.19
2019-02-18T00:07:01.516Z,73.46
2019-02-18T00:08:01.512Z,73.98
2019-02-18T00:09:01.537Z,73.98
2019-02-18T00:10:01.487Z,73.88
2019-02-18T00:11:01.481Z,73.81
2019-02-18T00:12:01.466Z,74.22
2019-02-18T00:13:01.457Z,74.32
2019-02-18T00:14:01.454Z,74.22
2019-02-18T00:15:01.493Z,74.22
2019-02-18T00:16:01.429Z,73.91
2019-02-18T00:17:01.417Z,74.43
2019-02-18T00:18:01.401Z,74.22
2019-02-18T00:19:01.396Z,74.63
2019-02-18T00:20:01.390Z,74.02
2019-02-18T00:21:01.494Z,73.91
2019-02-18T00:22:01.368Z,73.91
2019-02-18T00:23:01.358Z,73.81
2019-02-18T00:24:01.363Z,74.74
2019-02-18T00:25:01.335Z,75.05
2019-02-18T00:26:01.316Z,74.88
2019-02-18T00:27:01.337Z,75.09
2019-02-18T00:28:01.306Z,74.77
2019-02-18T00:29:01.318Z,75.60
2019-02-18T00:30:01.282Z,75.84
2019-02-18T00:31:01.298Z,75.50
2019-02-18T00:32:01.258Z,75.50
2019-02-18T00:33:01.252Z,75.19
2019-02-18T00:34:01.248Z,75.43
2019-02-18T00:35:01.232Z,75.32
2019-02-18T00:36:01.234Z,75.40
2019-02-18T00:37:01.205Z,75.40
2019-02-18T00:38:01.196Z,75.60
2019-02-18T00:39:01.189Z,75.81
2019-02-18T00:40:01.179Z,75.19
2019-02-18T00:41:01.186Z,75.19
2019-02-18T00:42:01.161Z,75.09
2019-02-18T00:43:01.153Z,75.29
2019-02-18T00:44:01.133Z,74.88
2019-02-18T00:45:01.123Z,74.98
2019-02-18T00:46:01.135Z,74.77
2019-02-18T00:47:01.102Z,74.77
2019-02-18T00:48:01.101Z,74.67
2019-02-18T00:49:01.087Z,73.94
2019-02-18T00:50:01.076Z,74.15
2019-02-18T00:51:01.083Z,74.15
2019-02-18T00:52:01.057Z,74.26
2019-02-18T00:53:01.046Z,74.53
2019-02-18T00:54:01.038Z,73.84
2019-02-18T00:55:01.028Z,74.88
2019-02-18T00:56:01.044Z,74.02
2019-02-18T00:57:01.025Z,74.26
2019-02-18T00:58:00.989Z,74.32
2019-02-18T00:59:00.980Z,74.26
2019-02-18T01:00:00.973Z,73.91
2019-02-18T01:01:00.963Z,74.26
2019-02-18T01:02:00.975Z,73.94
2019-02-18T01:03:00.946Z,73.91
2019-02-18T01:04:00.928Z,74.22
2019-02-18T01:05:00.916Z,74.02
2019-02-18T01:06:00.912Z,73.71
2019-02-18T01:07:00.932Z,73.32
2019-02-18T01:08:00.884Z,74.05
2019-02-18T01:09:00.875Z,73.53
2019-02-18T01:10:00.862Z,73.74
2019-02-18T01:11:00.857Z,73.43
2019-02-18T01:12:00.850Z,73.32
2019-02-18T01:13:00.863Z,74.05
2019-02-18T01:14:00.836Z,73.84
2019-02-18T01:15:00.819Z,73.84
2019-02-18T01:16:00.803Z,73.74
2019-02-18T01:17:00.790Z,73.94
2019-02-18T01:18:00.809Z,74.12
2019-02-18T01:19:00.772Z,74.05
2019-02-18T01:20:00.764Z,73.81
2019-02-18T01:21:00.754Z,73.81
2019-02-18T01:22:00.737Z,73.63
2019-02-18T01:23:00.727Z,73.08
2019-02-18T01:24:00.737Z,72.91
2019-02-18T01:25:00.712Z,73.60
2019-02-18T01:26:00.702Z,72.88
2019-02-18T01:27:00.696Z,72.77
2019-02-18T01:28:00.684Z,73.19
2019-02-18T01:29:00.685Z,72.98
2019-02-18T01:30:00.660Z,73.08
2019-02-18T01:31:00.645Z,73.60
2019-02-18T01:32:00.644Z,73.39
2019-02-18T01:33:00.636Z,73.19
2019-02-18T01:34:00.651Z,73.53
2019-02-18T01:35:00.610Z,73.53
2019-02-18T01:36:00.604Z,73.53
2019-02-18T01:37:00.596Z,73.74
2019-02-18T01:38:00.581Z,73.53
2019-02-18T01:39:00.571Z,73.84
2019-02-18T01:40:00.572Z,74.05
2019-02-18T01:41:00.542Z,73.94
2019-02-18T01:42:00.537Z,73.98
2019-02-18T01:43:00.523Z,73.84
2019-02-18T01:44:00.543Z,73.77
2019-02-18T01:45:00.507Z,74.40
2019-02-18T01:46:00.525Z,73.98
2019-02-18T01:47:00.486Z,74.50
2019-02-18T01:48:00.477Z,73.98
2019-02-18T01:49:00.461Z,74.08
2019-02-18T01:50:00.452Z,74.19
2019-02-18T01:51:00.450Z,74.08
2019-02-18T01:52:00.454Z,74.19
2019-02-18T01:53:00.424Z,74.40
2019-02-18T01:54:00.407Z,74.19
2019-02-18T01:55:00.398Z,74.08
2019-02-18T01:56:00.397Z,73.98
2019-02-18T01:57:00.414Z,74.19
2019-02-18T01:58:00.372Z,74.19
2019-02-18T01:59:00.360Z,74.29
2019-02-18T02:00:00.345Z,73.98
2019-02-18T02:01:00.339Z,73.88
2019-02-18T02:02:00.350Z,73.88
2019-02-18T02:03:00.312Z,73.67
2019-02-18T02:04:00.307Z,73.77
2019-02-18T02:05:00.379Z,73.98
2019-02-18T02:06:00.288Z,73.57
2019-02-18T02:07:00.309Z,73.36
2019-02-18T02:08:00.262Z,74.50
2019-02-18T02:09:00.251Z,73.77
2019-02-18T02:10:00.344Z,74.60
2019-02-18T02:11:00.237Z,74.19
2019-02-18T02:12:00.246Z,74.19
2019-02-18T02:13:00.208Z,73.88
2019-02-18T02:14:00.198Z,73.46
2019-02-18T02:15:00.220Z,73.91
2019-02-18T02:16:00.183Z,73.77
2019-02-18T02:17:00.194Z,73.36
2019-02-18T02:18:00.164Z,73.88
2019-02-18T02:19:00.158Z,73.36
2019-02-18T02:20:00.319Z,74.40
2019-02-18T02:21:00.126Z,74.29
2019-02-18T02:22:00.149Z,74.01
2019-02-18T02:23:00.109Z,74.01
2019-02-18T02:24:00.106Z,73.91
2019-02-18T02:25:00.217Z,74.32
2019-02-18T02:26:00.073Z,74.08
2019-02-18T02:27:00.072Z,74.22
2019-02-18T02:28:00.079Z,74.01
2019-02-18T02:29:00.049Z,74.40
2019-02-18T02:30:00.040Z,74.29
2019-02-18T02:31:01.268Z,74.50
2019-02-18T02:32:00.017Z,74.32
2019-02-18T02:33:00.033Z,74.40
2019-02-18T02:33:59.991Z,74.11
2019-02-18T02:34:59.985Z,74.22
2019-02-18T02:35:59.976Z,74.32
2019-02-18T02:36:59.966Z,74.53
2019-02-18T02:38:07.319Z,74.84
2019-02-18T02:39:00.964Z,75.05
2019-02-18T02:39:59.931Z,74.63
2019-02-18T02:40:59.917Z,74.74
2019-02-18T02:41:59.912Z,75.09
2019-02-18T02:42:59.905Z,75.29
2019-02-18T02:43:59.923Z,75.05
2019-02-18T02:44:59.875Z,75.40
2019-02-18T02:45:59.865Z,75.50
2019-02-18T02:46:59.868Z,75.81
2019-02-18T02:47:59.852Z,75.60
2019-02-18T02:48:59.847Z,75.40
2019-02-18T02:49:59.852Z,75.40
2019-02-18T02:50:59.820Z,75.60
2019-02-18T02:51:59.801Z,75.40
2019-02-18T02:52:59.793Z,75.50
2019-02-18T02:53:59.788Z,75.50
2019-02-18T02:54:59.789Z,75.40
2019-02-18T02:55:59.763Z,75.50
2019-02-18T02:56:59.754Z,75.40
2019-02-18T02:57:59.736Z,75.40
2019-02-18T02:58:59.738Z,75.60
2019-02-18T02:59:59.751Z,75.71
2019-02-18T03:00:59.718Z,75.71
2019-02-18T03:01:59.701Z,75.50
2019-02-18T03:02:59.744Z,75.60
2019-02-18T03:03:59.676Z,75.71
2019-02-18T03:04:59.688Z,75.92
2019-02-18T03:05:59.655Z,75.60
2019-02-18T03:06:59.644Z,75.92
2019-02-18T03:07:59.641Z,75.71
2019-02-18T03:08:59.630Z,74.98
2019-02-18T03:09:59.649Z,75.26
2019-02-18T03:10:59.607Z,75.40
2019-02-18T03:11:59.590Z,75.29
2019-02-18T03:12:59.580Z,75.19
2019-02-18T03:13:59.580Z,75.60
2019-02-18T03:14:59.564Z,75.29
2019-02-18T03:15:59.564Z,75.50
2019-02-18T03:16:59.551Z,75.09
2019-02-18T03:17:59.538Z,75.19
2019-02-18T03:18:59.516Z,75.40
2019-02-18T03:19:59.513Z,75.29
2019-02-18T03:20:59.522Z,75.50
2019-02-18T03:21:59.512Z,75.29
2019-02-18T03:22:59.481Z,75.19
2019-02-18T03:23:59.470Z,74.98
2019-02-18T03:24:59.455Z,75.29
2019-02-18T03:25:59.443Z,75.43
2019-02-18T03:26:59.459Z,75.54
2019-02-18T03:27:59.432Z,76.16
2019-02-18T03:28:59.418Z,75.98
2019-02-18T03:29:59.408Z,76.16
2019-02-18T03:30:59.400Z,76.37
2019-02-18T03:31:59.407Z,76.57
2019-02-18T03:32:59.385Z,76.40
2019-02-18T03:33:59.374Z,76.68
2019-02-18T03:35:00.598Z,77.02
2019-02-18T03:35:59.342Z,76.29
2019-02-18T03:36:59.357Z,76.71
2019-02-18T03:37:59.319Z,76.61
2019-02-18T03:38:59.308Z,77.02
2019-02-18T03:39:59.303Z,77.23
2019-02-18T03:41:03.259Z,76.19
2019-02-18T03:41:59.301Z,77.23
2019-02-18T03:42:59.273Z,76.92
2019-02-18T03:43:59.255Z,76.81
2019-02-18T03:44:59.252Z,76.40
2019-02-18T03:45:59.239Z,76.81
2019-02-18T03:46:59.251Z,76.50
2019-02-18T03:47:59.236Z,77.06
2019-02-18T03:48:59.225Z,77.44
2019-02-18T03:49:59.192Z,77.54
2019-02-18T03:50:59.185Z,76.64
2019-02-18T03:51:59.174Z,77.37
2019-02-18T03:52:59.184Z,77.58
2019-02-18T03:53:59.180Z,77.47
2019-02-18T03:54:59.147Z,78.09
2019-02-18T03:55:59.128Z,77.26
2019-02-18T03:56:59.117Z,77.99
2019-02-18T03:57:59.108Z,77.58
2019-02-18T03:58:59.116Z,77.47
2019-02-18T03:59:59.106Z,77.54
2019-02-18T04:00:59.081Z,77.33
2019-02-18T04:01:59.064Z,76.16
2019-02-18T04:02:59.072Z,75.85
2019-02-18T04:03:59.083Z,75.78
2019-02-18T04:04:59.044Z,75.54
2019-02-18T04:05:59.033Z,75.64
2019-02-18T04:06:59.020Z,75.43
2019-02-18T04:07:59.005Z,75.74
2019-02-18T04:08:59.014Z,75.64
2019-02-18T04:09:58.985Z,75.64
2019-02-18T04:10:58.978Z,75.95
2019-02-18T04:11:58.967Z,75.85
2019-02-18T04:12:58.959Z,75.85
2019-02-18T04:13:58.965Z,75.85
2019-02-18T04:14:58.940Z,75.85
2019-02-18T04:15:58.918Z,75.71
2019-02-18T04:16:58.917Z,75.85
2019-02-18T04:17:58.904Z,75.74
2019-02-18T04:18:58.932Z,75.85
2019-02-18T04:19:58.885Z,75.74
2019-02-18T04:20:58.866Z,75.74
2019-02-18T04:21:58.859Z,75.54
2019-02-18T04:22:58.865Z,75.98
2019-02-18T04:23:58.841Z,76.09
2019-02-18T04:24:58.850Z,76.40
2019-02-18T04:25:58.821Z,76.61
2019-02-18T04:26:58.809Z,76.92
2019-02-18T04:27:58.794Z,77.47
2019-02-18T04:28:58.788Z,76.92
2019-02-18T04:29:58.791Z,76.23
2019-02-18T04:30:58.761Z,76.64
2019-02-18T04:31:58.758Z,76.95
2019-02-18T04:32:58.747Z,77.37
2019-02-18T04:33:58.731Z,77.37
2019-02-18T04:34:58.746Z,77.47
2019-02-18T04:35:58.715Z,77.78
2019-02-18T04:36:58.704Z,76.95
2019-02-18T04:37:58.695Z,77.06
2019-02-18T04:38:58.687Z,77.58
2019-02-18T04:39:58.677Z,77.68
2019-02-18T04:40:58.680Z,77.16
2019-02-18T04:41:58.649Z,77.23
2019-02-18T04:42:58.642Z,76.64
2019-02-18T04:43:58.647Z,77.23
2019-02-18T04:44:58.620Z,76.95
2019-02-18T04:45:58.641Z,77.26
2019-02-18T04:46:58.608Z,76.54
2019-02-18T04:47:58.587Z,77.26
2019-02-18T04:48:58.575Z,77.09
2019-02-18T04:49:58.570Z,77.61
2019-02-18T04:50:58.563Z,77.51
2019-02-18T04:51:58.569Z,77.30
2019-02-18T04:52:58.532Z,77.65
2019-02-18T04:53:58.526Z,77.96
2019-02-18T04:54:58.514Z,77.75
2019-02-18T04:55:58.509Z,78.48
2019-02-18T04:56:58.537Z,78.44
2019-02-18T04:57:58.492Z,78.34
2019-02-18T04:58:58.476Z,78.17
2019-02-18T04:59:58.478Z,77.86
2019-02-18T05:00:58.445Z,77.92
2019-02-18T05:01:58.456Z,77.86
2019-02-18T05:02:58.456Z,78.17
2019-02-18T05:03:58.425Z,78.17
2019-02-18T05:04:58.426Z,77.96
2019-02-18T05:05:58.399Z,78.17
2019-02-18T05:06:58.384Z,77.86
2019-02-18T05:07:58.408Z,77.92
2019-02-18T05:09:05.237Z,77.72
2019-02-18T05:09:59.359Z,77.40
2019-02-18T05:10:58.355Z,77.61
2019-02-18T05:11:58.331Z,77.30
2019-02-18T05:12:58.325Z,77.51
2019-02-18T05:13:58.330Z,78.03
2019-02-18T05:14:58.303Z,77.51
2019-02-18T05:15:58.300Z,77.30
2019-02-18T05:16:58.290Z,77.75
2019-02-18T05:17:58.276Z,78.03
2019-02-18T05:18:58.306Z,77.65
2019-02-18T05:19:58.252Z,77.30
2019-02-18T05:20:58.241Z,77.72
2019-02-18T05:21:58.238Z,77.72
2019-02-18T05:22:58.232Z,76.99
2019-02-18T05:23:58.213Z,77.20
2019-02-18T05:24:58.216Z,76.99
2019-02-18T05:25:58.194Z,76.99
2019-02-18T05:26:58.180Z,76.99
2019-02-18T05:27:58.178Z,77.40
2019-02-18T05:28:58.161Z,77.55
2019-02-18T05:29:58.176Z,77.65
2019-02-18T05:30:58.144Z,77.55
2019-02-18T05:31:58.127Z,77.55
2019-02-18T05:32:58.119Z,77.65
2019-02-18T05:33:58.107Z,77.65
2019-02-18T05:34:58.113Z,77.86
2019-02-18T05:35:58.092Z,77.96
2019-02-18T05:36:58.077Z,78.00
2019-02-18T05:37:58.061Z,78.20
2019-02-18T05:38:58.064Z,78.41
2019-02-18T05:39:58.078Z,78.52
2019-02-18T05:40:58.061Z,78.52
2019-02-18T05:41:58.028Z,78.41
2019-02-18T05:42:58.017Z,78.93
2019-02-18T05:43:58.005Z,78.83
2019-02-18T05:44:58.002Z,79.24
2019-02-18T05:45:58.006Z,79.03
2019-02-18T05:46:57.969Z,78.93
2019-02-18T05:47:57.964Z,78.97
2019-02-18T05:48:57.957Z,79.49
2019-02-18T05:49:57.943Z,79.28
2019-02-18T05:50:57.959Z,78.97
2019-02-18T05:51:57.924Z,78.52
2019-02-18T05:52:57.905Z,79.24
2019-02-18T05:53:57.901Z,79.17
2019-02-18T05:54:57.896Z,78.93
2019-02-18T05:55:57.875Z,79.28
2019-02-18T05:56:57.903Z,79.28
2019-02-18T05:57:57.869Z,79.49
2019-02-18T05:58:57.843Z,79.24
2019-02-18T05:59:57.842Z,79.38
2019-02-18T06:00:57.837Z,79.07
2019-02-18T06:01:57.845Z,79.45
2019-02-18T06:02:57.823Z,79.59
2019-02-18T06:04:00.054Z,78.83
2019-02-18T06:04:57.784Z,79.07
2019-02-18T06:05:57.769Z,78.66
2019-02-18T06:06:57.775Z,79.28
2019-02-18T06:07:57.761Z,79.03
2019-02-18T06:08:57.765Z,79.35
2019-02-18T06:09:57.731Z,78.93
2019-02-18T06:10:57.728Z,79.07
2019-02-18T06:11:57.714Z,78.93
2019-02-18T06:12:57.743Z,79.14
2019-02-18T06:13:57.700Z,79.24
2019-02-18T06:14:57.696Z,79.17
2019-02-18T06:15:57.667Z,79.28
2019-02-18T06:16:57.658Z,79.07
2019-02-18T06:17:57.667Z,78.93
2019-02-18T06:18:57.638Z,79.24
2019-02-18T06:19:57.634Z,78.72
2019-02-18T06:20:57.623Z,79.17
2019-02-18T06:21:57.613Z,79.07
2019-02-18T06:22:57.618Z,78.93
2019-02-18T06:23:57.581Z,79.14
2019-02-18T06:24:57.571Z,78.93
2019-02-18T06:25:57.577Z,79.03
2019-02-18T06:26:57.561Z,79.14
2019-02-18T06:27:57.561Z,79.14
2019-02-18T06:28:57.539Z,79.17
2019-02-18T06:29:57.556Z,79.35
2019-02-18T06:30:57.526Z,79.38
2019-02-18T06:31:57.508Z,79.24
2019-02-18T06:32:57.503Z,79.03
2019-02-18T06:33:57.522Z,78.83
2019-02-18T06:34:57.475Z,78.31
2019-02-18T06:35:57.487Z,78.72
2019-02-18T06:36:57.455Z,78.31
2019-02-18T06:37:57.459Z,78.00
2019-02-18T06:38:57.837Z,78.10
2019-02-18T06:39:57.449Z,77.44
2019-02-18T06:40:57.415Z,77.55
2019-02-18T06:41:57.409Z,77.55
2019-02-18T06:42:57.388Z,77.34
2019-02-18T06:43:57.389Z,77.55
2019-02-18T06:44:57.411Z,77.44
2019-02-18T06:45:57.364Z,77.65
2019-02-18T06:46:57.352Z,76.72
2019-02-18T06:47:57.338Z,77.13
2019-02-18T06:48:57.328Z,76.92
2019-02-18T06:49:57.316Z,77.20
2019-02-18T06:50:57.330Z,76.89
2019-02-18T06:51:57.301Z,76.16
2019-02-18T06:52:57.290Z,75.36
2019-02-18T06:53:57.297Z,73.32
2019-02-18T06:54:57.269Z,70.50
2019-02-18T06:55:57.255Z,68.40
2019-02-18T06:56:57.239Z,67.09
2019-02-18T06:57:57.240Z,64.76
2019-02-18T06:58:57.246Z,64.42
2019-02-18T06:59:57.217Z,63.28
2019-02-18T07:00:57.222Z,62.74
2019-02-18T07:01:57.192Z,62.16
2019-02-18T07:02:57.182Z,61.44
2019-02-18T07:03:57.177Z,59.84
2019-02-18T07:04:57.196Z,58.54
2019-02-18T07:05:57.163Z,56.64
2019-02-18T07:06:57.148Z,56.00
2019-02-18T07:07:57.127Z,55.05
2019-02-18T07:08:57.119Z,53.87
2019-02-18T07:09:57.103Z,52.72
2019-02-18T07:10:57.111Z,52.80
2019-02-18T07:11:58.082Z,52.49
2019-02-18T07:12:57.091Z,51.67
2019-02-18T07:13:57.062Z,51.34
2019-02-18T07:14:57.071Z,50.82
2019-02-18T07:15:57.047Z,50.57
2019-02-18T07:16:57.039Z,49.32
2019-02-18T07:17:57.041Z,48.38
2019-02-18T07:18:57.031Z,48.05
2019-02-18T07:19:57.019Z,47.80
2019-02-18T07:20:57.003Z,46.75
2019-02-18T07:21:56.994Z,46.53
2019-02-18T07:22:56.968Z,45.61
2019-02-18T07:23:56.978Z,45.31
2019-02-18T07:24:56.954Z,46.12
2019-02-18T07:25:56.968Z,45.84
2019-02-18T07:26:56.977Z,45.53
2019-02-18T07:27:56.913Z,46.55
2019-02-18T07:28:56.903Z,45.22
2019-02-18T07:29:56.905Z,45.72
2019-02-18T07:30:56.894Z,44.98
2019-02-18T07:31:56.872Z,43.41
2019-02-18T07:32:56.891Z,43.41
2019-02-18T07:33:56.852Z,43.71
2019-02-18T07:34:56.840Z,43.91
2019-02-18T07:35:56.849Z,43.81
2019-02-18T07:36:56.826Z,43.90
2019-02-18T07:37:56.835Z,43.63
2019-02-18T07:38:56.801Z,43.84
2019-02-18T07:40:01.661Z,44.24
2019-02-18T07:40:57.774Z,44.04
2019-02-18T07:41:56.760Z,44.14
2019-02-18T07:42:56.768Z,43.71
2019-02-18T07:43:56.773Z,43.08
2019-02-18T07:44:56.736Z,42.98
2019-02-18T07:45:56.722Z,43.59
2019-02-18T07:46:56.756Z,43.37
2019-02-18T07:47:56.730Z,41.92
2019-02-18T07:48:56.706Z,42.21
2019-02-18T07:49:56.693Z,41.07
2019-02-18T07:50:56.672Z,40.86
2019-02-18T07:51:56.657Z,41.05
2019-02-18T07:52:56.667Z,40.12
2019-02-18T07:53:56.635Z,39.61
2019-02-18T07:54:56.624Z,39.57
2019-02-18T07:55:56.623Z,39.13
2019-02-18T07:56:56.609Z,38.40
2019-02-18T07:57:56.629Z,37.37
2019-02-18T07:58:56.592Z,37.98
2019-02-18T07:59:56.571Z,37.25
2019-02-18T08:00:56.559Z,36.43
2019-02-18T08:01:56.559Z,36.52
2019-02-18T08:02:56.590Z,36.81
2019-02-18T08:03:56.540Z,37.37
2019-02-18T08:04:56.519Z,37.47
2019-02-18T08:05:56.519Z,37.57
2019-02-18T08:06:56.495Z,37.79
2019-02-18T08:07:56.496Z,37.23
2019-02-18T08:08:56.499Z,36.21
2019-02-18T08:09:56.473Z,36.10
2019-02-18T08:10:56.458Z,35.86
2019-02-18T08:11:56.444Z,35.44
2019-02-18T08:12:56.458Z,34.94
2019-02-18T08:13:56.430Z,35.24
2019-02-18T08:14:56.410Z,35.14
2019-02-18T08:15:56.407Z,34.72
2019-02-18T08:16:56.400Z,34.41
2019-02-18T08:17:56.397Z,34.66
2019-02-18T08:18:56.398Z,35.90
2019-02-18T08:19:56.365Z,36.41
2019-02-18T08:20:56.356Z,36.72
2019-02-18T08:21:56.343Z,36.41
2019-02-18T08:22:56.334Z,35.06
2019-02-18T08:24:00.106Z,35.04
2019-02-18T08:24:56.321Z,34.75
2019-02-18T08:25:56.288Z,35.03
2019-02-18T08:26:56.283Z,34.01
2019-02-18T08:27:56.273Z,33.72
2019-02-18T08:28:56.263Z,34.20
2019-02-18T08:29:57.071Z,34.20
2019-02-18T08:30:56.383Z,33.81
2019-02-18T08:31:56.225Z,34.42
2019-02-18T08:32:56.232Z,34.62
2019-02-18T08:33:56.224Z,33.97
2019-02-18T08:34:56.204Z,33.55
2019-02-18T08:35:56.186Z,32.98
2019-02-18T08:36:56.175Z,34.64
2019-02-18T08:37:56.179Z,34.32
2019-02-18T08:38:56.149Z,33.88
2019-02-18T08:39:56.146Z,33.88
2019-02-18T08:40:56.153Z,34.01
2019-02-18T08:41:56.127Z,34.45
2019-02-18T08:42:56.114Z,35.46
2019-02-18T08:43:56.126Z,34.75
2019-02-18T08:44:56.087Z,35.06
2019-02-18T08:45:56.074Z,34.10
2019-02-18T08:46:56.064Z,34.00
2019-02-18T08:47:56.061Z,33.90
2019-02-18T08:48:56.048Z,34.32
2019-02-18T08:49:56.047Z,33.70
2019-02-18T08:50:56.027Z,33.75
2019-02-18T08:51:56.015Z,32.64
2019-02-18T08:52:56.006Z,33.38
2019-02-18T08:53:55.997Z,33.68
2019-02-18T08:54:56.919Z,34.30
2019-02-18T08:55:55.968Z,33.48
2019-02-18T08:56:55.980Z,33.11
2019-02-18T08:57:55.949Z,33.72
2019-02-18T08:58:55.937Z,33.48
2019-02-18T08:59:55.932Z,33.33
2019-02-18T09:01:02.621Z,30.79
2019-02-18T09:01:56.907Z,31.17
2019-02-18T09:02:55.897Z,30.43
2019-02-18T09:03:55.883Z,29.72
2019-02-18T09:04:55.869Z,29.48
2019-02-18T09:05:55.892Z,29.79
2019-02-18T09:06:55.857Z,28.77
2019-02-18T09:07:55.844Z,28.33
2019-02-18T09:08:55.826Z,29.24
2019-02-18T09:09:55.817Z,29.53
2019-02-18T09:10:55.825Z,28.23
2019-02-18T09:11:55.801Z,28.62
2019-02-18T09:12:55.790Z,27.81
2019-02-18T09:13:55.780Z,27.91
2019-02-18T09:14:55.780Z,27.80
2019-02-18T09:15:59.965Z,27.88
2019-02-18T09:16:55.746Z,27.19
2019-02-18T09:17:55.732Z,27.08
2019-02-18T09:18:55.720Z,27.19
2019-02-18T09:19:55.715Z,27.89
2019-02-18T09:20:55.724Z,27.80
2019-02-18T09:21:55.700Z,27.58
2019-02-18T09:22:55.690Z,26.50
2019-02-18T09:23:55.673Z,27.28
2019-02-18T09:24:55.663Z,26.67
2019-02-18T09:25:55.667Z,27.06
2019-02-18T09:26:55.666Z,26.65
2019-02-18T09:27:55.643Z,27.04
2019-02-18T09:28:55.614Z,26.63
2019-02-18T09:29:55.604Z,26.32
2019-02-18T09:30:55.603Z,25.41
2019-02-18T09:31:55.674Z,25.62
2019-02-18T09:32:55.583Z,25.51
2019-02-18T09:33:55.583Z,25.60
2019-02-18T09:35:01.752Z,25.19
2019-02-18T09:35:56.538Z,24.68
2019-02-18T09:36:56.275Z,24.37
2019-02-18T09:37:55.557Z,23.58
2019-02-18T09:38:55.518Z,23.67
2019-02-18T09:39:55.505Z,24.17
2019-02-18T09:40:55.489Z,24.35
2019-02-18T09:41:55.477Z,24.74
2019-02-18T09:42:55.500Z,24.05
2019-02-18T09:43:55.464Z,23.65
2019-02-18T09:44:55.461Z,23.94
2019-02-18T09:45:55.446Z,23.96
2019-02-18T09:46:55.432Z,23.86
2019-02-18T09:47:55.418Z,23.86
2019-02-18T09:48:55.423Z,24.26
2019-02-18T09:49:55.414Z,23.94
2019-02-18T09:50:55.396Z,24.05
2019-02-18T09:51:55.381Z,24.54
2019-02-18T09:52:55.399Z,24.13
2019-02-18T09:53:55.377Z,23.75
2019-02-18T09:54:55.344Z,23.74
2019-02-18T09:55:55.340Z,23.45
2019-02-18T09:56:55.331Z,23.55
2019-02-18T09:57:55.317Z,23.86
2019-02-18T09:58:55.325Z,24.05
2019-02-18T09:59:55.293Z,23.86
2019-02-18T10:00:55.280Z,23.34
2019-02-18T10:01:55.268Z,22.95
2019-02-18T10:02:55.275Z,23.72
2019-02-18T10:03:55.284Z,23.22
2019-02-18T10:04:55.250Z,22.61
2019-02-18T10:05:55.233Z,22.52
2019-02-18T10:06:55.225Z,23.82
2019-02-18T10:07:55.210Z,23.23
2019-02-18T10:08:55.199Z,23.43
2019-02-18T10:09:55.217Z,23.75
2019-02-18T10:10:56.304Z,23.25
2019-02-18T10:11:55.167Z,23.05
2019-02-18T10:12:55.163Z,23.87
2019-02-18T10:13:55.149Z,24.08
2019-02-18T10:14:55.162Z,24.50
2019-02-18T10:15:55.136Z,25.63
2019-02-18T10:16:55.122Z,26.03
2019-02-18T10:17:55.111Z,26.01
2019-02-18T10:18:55.105Z,24.59
2019-02-18T10:19:55.103Z,24.47
2019-02-18T10:20:55.089Z,24.05
2019-02-18T10:21:55.071Z,23.64
2019-02-18T10:22:55.056Z,24.23
2019-02-18T10:23:55.060Z,23.86
2019-02-18T10:24:55.059Z,24.27
2019-02-18T10:25:55.027Z,25.16
2019-02-18T10:26:55.012Z,23.66
2019-02-18T10:27:55.009Z,24.79
2019-02-18T10:28:54.998Z,25.84
2019-02-18T10:29:55.025Z,26.84
2019-02-18T10:30:54.980Z,26.32
2019-02-18T10:31:54.962Z,25.68
2019-02-18T10:32:54.952Z,24.24
2019-02-18T10:33:54.948Z,23.93
2019-02-18T10:34:54.933Z,24.15
2019-02-18T10:35:54.948Z,23.94
2019-02-18T10:36:54.925Z,24.24
2019-02-18T10:37:55.434Z,24.24
2019-02-18T10:38:54.897Z,23.03
2019-02-18T10:39:54.887Z,23.81
2019-02-18T10:40:54.909Z,24.20
2019-02-18T10:41:54.870Z,24.10
2019-02-18T10:42:54.856Z,23.21
2019-02-18T10:43:54.882Z,23.23
2019-02-18T10:44:54.831Z,24.04
2019-02-18T10:45:54.827Z,23.44
2019-02-18T10:46:54.829Z,23.55
2019-02-18T10:47:54.810Z,23.82
2019-02-18T10:48:54.798Z,22.72
2019-02-18T10:49:54.787Z,22.42
2019-02-18T10:50:54.780Z,22.72
2019-02-18T10:51:54.790Z,23.23
2019-02-18T10:52:54.752Z,23.24
2019-02-18T10:53:54.745Z,23.93
2019-02-18T10:54:54.860Z,23.64
2019-02-18T10:55:54.732Z,22.93
2019-02-18T10:56:54.752Z,23.12
2019-02-18T10:57:54.704Z,22.71
2019-02-18T10:58:54.696Z,22.71
2019-02-18T10:59:54.702Z,22.92
2019-02-18T11:00:54.685Z,23.61
2019-02-18T11:01:54.671Z,23.39
2019-02-18T11:02:54.681Z,22.70
2019-02-18T11:03:54.650Z,22.09
2019-02-18T11:04:54.632Z,22.78
2019-02-18T11:05:54.625Z,21.88
2019-02-18T11:06:54.613Z,21.58
2019-02-18T11:07:54.627Z,21.48
2019-02-18T11:08:54.610Z,21.17
2019-02-18T11:09:54.589Z,21.67
2019-02-18T11:10:54.586Z,21.58
2019-02-18T11:11:54.601Z,22.20
2019-02-18T11:12:54.580Z,23.32
2019-02-18T11:13:54.566Z,23.52
2019-02-18T11:14:54.551Z,22.72
2019-02-18T11:15:54.525Z,22.61
2019-02-18T11:16:54.513Z,22.09
2019-02-18T11:17:54.522Z,22.28
2019-02-18T11:18:54.490Z,21.78
2019-02-18T11:19:54.486Z,21.88
2019-02-18T11:20:54.476Z,21.78
2019-02-18T11:21:54.469Z,22.00
2019-02-18T11:22:54.475Z,22.20
2019-02-18T11:23:54.460Z,22.30
2019-02-18T11:24:54.432Z,22.19
2019-02-18T11:25:54.423Z,22.97
2019-02-18T11:26:54.411Z,22.37
2019-02-18T11:27:54.428Z,21.86
2019-02-18T11:28:54.400Z,21.97
2019-02-18T11:29:54.386Z,21.49
2019-02-18T11:30:54.370Z,21.59
2019-02-18T11:31:54.370Z,21.89
2019-02-18T11:32:54.373Z,21.69
2019-02-18T11:33:54.349Z,21.47
2019-02-18T11:34:54.356Z,21.46
2019-02-18T11:35:54.319Z,21.37
2019-02-18T11:36:54.308Z,21.38
2019-02-18T11:37:54.323Z,21.89
2019-02-18T11:38:54.291Z,22.72
2019-02-18T11:39:54.292Z,24.05
2019-02-18T11:40:54.281Z,23.83
2019-02-18T11:41:54.272Z,22.92
2019-02-18T11:42:54.288Z,22.11
2019-02-18T11:43:54.244Z,22.02
2019-02-18T11:44:54.233Z,23.13
2019-02-18T11:45:54.226Z,24.05
2019-02-18T11:46:54.216Z,24.48
2019-02-18T11:47:54.197Z,25.50
2019-02-18T11:48:54.211Z,24.59
2019-02-18T11:49:55.278Z,24.48
2019-02-18T11:50:54.169Z,25.07
2019-02-18T11:51:54.164Z,24.47
2019-02-18T11:52:54.155Z,23.54
2019-02-18T11:53:54.175Z,22.11
2019-02-18T11:54:54.143Z,22.89
2019-02-18T11:55:54.120Z,22.00
2019-02-18T11:56:54.110Z,22.11
2019-02-18T11:57:54.099Z,22.02
2019-02-18T11:58:54.087Z,23.24
2019-02-18T11:59:54.109Z,23.50
2019-02-18T12:00:54.077Z,22.50
2019-02-18T12:01:54.063Z,22.38
2019-02-18T12:03:02.916Z,21.86
2019-02-18T12:03:55.044Z,21.40
2019-02-18T12:04:54.063Z,21.71
2019-02-18T12:05:54.026Z,22.33
2019-02-18T12:06:54.019Z,24.05
2019-02-18T12:07:54.004Z,23.26
2019-02-18T12:08:53.992Z,22.94
2019-02-18T12:09:53.981Z,22.33
2019-02-18T12:10:53.988Z,22.41
2019-02-18T12:11:53.965Z,22.13
2019-02-18T12:12:55.854Z,22.61
2019-02-18T12:13:53.951Z,22.11
2019-02-18T12:14:53.957Z,23.21
2019-02-18T12:15:53.922Z,22.00
2019-02-18T12:16:53.913Z,21.20
2019-02-18T12:17:53.908Z,21.07
2019-02-18T12:18:53.897Z,21.97
2019-02-18T12:19:53.916Z,21.18
2019-02-18T12:20:53.868Z,21.06
2019-02-18T12:21:53.860Z,20.26
2019-02-18T12:22:53.871Z,19.87
2019-02-18T12:23:53.855Z,21.38
2019-02-18T12:24:53.856Z,21.67
2019-02-18T12:25:53.866Z,21.38
2019-02-18T12:26:53.828Z,21.39
2019-02-18T12:27:53.803Z,21.98
2019-02-18T12:28:53.796Z,21.69
2019-02-18T12:29:53.808Z,21.81
2019-02-18T12:30:53.826Z,22.94
2019-02-18T12:31:53.766Z,24.07
2019-02-18T12:32:53.755Z,24.05
2019-02-18T12:33:53.760Z,24.38
2019-02-18T12:34:53.731Z,23.85
2019-02-18T12:35:53.727Z,23.24
2019-02-18T12:36:53.730Z,24.17
2019-02-18T12:37:55.603Z,24.28
2019-02-18T12:38:53.718Z,24.05
2019-02-18T12:39:53.683Z,24.15
2019-02-18T12:40:53.672Z,22.92
2019-02-18T12:41:53.666Z,22.11
2019-02-18T12:42:53.674Z,22.72
2019-02-18T12:43:53.651Z,22.42
2019-02-18T12:44:53.701Z,21.51
2019-02-18T12:45:53.626Z,21.51
2019-02-18T12:46:53.623Z,21.39
2019-02-18T12:47:53.649Z,21.18
2019-02-18T12:48:53.597Z,21.17
2019-02-18T12:49:53.592Z,20.76
2019-02-18T12:50:53.578Z,20.08
2019-02-18T12:51:53.563Z,20.98